Lexington, MA (02420)

3:53 PM EDT on September 02, 2014 (GMT -0400)
Lexington Burnham Farms | Change Station
CLOSE
Current Station
Personal Weather Station
Location: Lexington, MA
Elevation: 213 ft
Nearby Weather Stations
Active Advisory: Special Statement

Elev 213 ft 42.46 °N, 71.21 °W | Updated 20 seconds ago

Partly Cloudy
Partly Cloudy
82.2 °F
Feels Like 88 °F
N
1.1
Wind Variable Wind from West
Gusts 3.0 mph

Today
High -- | Low -- °F
--% Chance of Precip.
Yesterday
High -- | Low -- °F
Precip. -- in
6:10 AM 7:17 PM
First Quarter, 54% visible
Pressure 29.83 in
Visibility 10.0 miles
Clouds Few 4500 ft
Few 11000 ft
Heat Index 88 °F
Dew Point 74 °F
Humidity 75%
Rainfall 0.00 in
Snow Depth Not available.
UV 6 out of 12
Pollen 8.20 out of 12
Ozone Good
PM2.5 Moderate
Flu Activity Not available.
METAR KBED 021856Z 17007KT 10SM FEW045 FEW110 29/22 A2980 RMK AO2 RAB27E36 SLP101 P0000 T02890217

More Conditions Fewer Conditions

Pressure 29.83 in
Visibility 10.0 miles
Clouds Few 4500 ft
Few 11000 ft
Heat Index 88 °F
Dew Point 74 °F
Humidity 75%
Rainfall 0.00 in
Snow Depth Not available.
UV 6 out of 12
Pollen 8.20 out of 12
Ozone Good
PM2.5 Moderate
Flu Activity Not available.
METAR KBED 021856Z 17007KT 10SM FEW045 FEW110 29/22 A2980 RMK AO2 RAB27E36 SLP101 P0000 T02890217

More Conditions Fewer Conditions

10-Day Weather Forecast

Almanac

Astronomy

Sep. 02, 2014 Rise Set
Actual Time 6:10 AM EDT 7:17 PM EDT
Civil Twilight 5:42 AM EDT 7:46 PM EDT
Nautical Twilight 5:07 AM EDT 8:20 PM EDT
Astronomical Twilight 4:31 AM EDT 8:56 PM EDT
Moon 2:00 PM EDT 11:59 PM EDT
Length of Visible Light 14h 04m
Length of Day
13h 06m
Tomorrow will be 2m 47s shorter.
First Quarter, 54% of the Moon is Illuminated
Today
First Quarter
Sep 8
Full
Sep 15
Last Quarter
Sep 24
New
Oct 1
First Quarter

Today's Extremes

State Highs State Lows

Community

WunderPhotos

Upload Photos

1,749,751 photos uploaded!

WunderBlogs® & News

By Dr. Jeff Masters
Director of Meteorology, Weather Underground
By Kari Strenfel
Meteorologist, Weather Underground
By Christopher C. Burt
Weather Historian, Weather Underground
September 2, 2014
September 2, 2014
September 2, 2014

Nearby

Air Quality

  Air Quality AQ Index Pollutant
Yesterday Good
PM2.5
Yesterday Good
OZONE
Current Moderate
PM2.5
Current Good
OZONE
Tuesday Moderate
PM2.5
Tuesday Good
OZONE

Snow Depth

Station Depth Elevation
No new snow has been reported.

Earthquake Activity

City Distance Mag. Time & Date
No recent earthquake activity has been reported nearby.
Minimum magnitude displayed is 2.5.

Coastal Water Temperatures

Place Temperature
Boston, MA 66.0 °F
Providence, RI 73.9 °F
Fall River, MA 75.0 °F
Conimicut Light, RI 75.0 °F

Nearby Weather Stations